Time;durP1;ratioP1;P1;durP2;ratioP2;P2;SDS_P1;SDS_P2;PMS_P1;PMS_P2;Temp;Humidity;BMP_temperature;BMP_pressure;BME280_temperature;BME280_humidity;BME280_pressure;Samples;Min_cycle;Max_cycle;Signal;HPM_P1;HPM_P2
2022/11/27 00:01:19;;;;;;;;;19.75;15.00;;;;;8.49;75.60;101836.13;5056820;28;46350;-61
2022/11/27 00:03:45;;;;;;;;;14.00;14.00;;;;;8.52;75.73;101849.28;5057871;28;46597;-64
2022/11/27 00:06:13;;;;;;;;;20.00;18.50;;;;;8.52;75.42;101841.31;5082701;27;45499;-63
2022/11/27 00:08:38;;;;;;;;;18.50;18.50;;;;;8.40;75.29;101831.94;5080987;28;45561;-58
2022/11/27 00:11:15;;;;;;;;;18.50;17.00;;;;;8.38;75.67;101840.84;5080905;27;45811;-57
2022/11/27 00:13:41;;;;;;;;;17.75;14.00;;;;;8.38;75.23;101836.41;5081873;27;45643;-60
2022/11/27 00:16:07;;;;;;;;;22.00;22.00;;;;;8.36;75.84;101826.75;5081093;28;45759;-61
2022/11/27 00:18:33;;;;;;;;;18.50;14.25;;;;;8.40;75.65;101825.75;5076379;27;46454;-62
2022/11/27 00:21:09;;;;;;;;;19.50;16.75;;;;;8.39;75.74;101810.75;5080831;28;45654;-64
2022/11/27 00:23:34;;;;;;;;;18.75;18.25;;;;;8.36;75.67;101805.56;5082773;27;45415;-63
2022/11/27 00:26:01;;;;;;;;;22.50;16.25;;;;;8.41;75.83;101811.59;5083486;27;45371;-70
2022/11/27 00:28:27;;;;;;;;;17.50;11.00;;;;;8.33;75.24;101792.31;5050216;28;45233;-56
2022/11/27 00:30:52;;;;;;;;;17.00;13.00;;;;;8.41;75.82;101808.94;5081200;27;45463;-63
2022/11/27 00:33:17;;;;;;;;;17.00;13.25;;;;;8.48;75.27;101803.44;5082228;27;45440;-67
2022/11/27 00:35:43;;;;;;;;;17.00;17.00;;;;;8.43;74.97;101794.72;5081053;28;45326;-64
2022/11/27 00:38:09;;;;;;;;;18.75;17.50;;;;;8.52;75.32;101793.59;5081898;28;45248;-64
2022/11/27 00:40:34;;;;;;;;;18.75;13.50;;;;;8.54;74.57;101797.94;5082567;28;46014;-64
2022/11/27 00:43:00;;;;;;;;;15.25;15.25;;;;;8.53;74.75;101796.19;5064612;28;45228;-65
2022/11/27 00:45:27;;;;;;;;;20.75;15.00;;;;;8.55;75.66;101785.56;5078476;28;45293;-62
2022/11/27 00:47:52;;;;;;;;;18.00;15.75;;;;;8.56;74.89;101774.03;5062942;28;45488;-62
2022/11/27 00:50:18;;;;;;;;;18.25;16.75;;;;;8.49;74.81;101768.06;5080192;27;46050;-63
2022/11/27 00:52:43;;;;;;;;;16.75;14.75;;;;;8.44;75.47;101774.38;5081404;28;45456;-70
2022/11/27 00:55:09;;;;;;;;;17.25;13.50;;;;;8.45;75.73;101768.16;5075982;27;46817;-68
2022/11/27 00:57:34;;;;;;;;;13.25;13.25;;;;;8.44;74.85;101769.06;5066850;28;45514;-66
2022/11/27 00:59:59;;;;;;;;;17.25;10.50;;;;;8.40;75.70;101772.75;5081618;28;45439;-64
2022/11/27 01:02:25;;;;;;;;;23.75;17.75;;;;;8.41;75.69;101779.78;5063150;27;45290;-65
2022/11/27 01:04:50;;;;;;;;;21.00;16.75;;;;;8.44;75.95;101784.97;5063329;28;45367;-68
2022/11/27 01:07:16;;;;;;;;;15.50;15.50;;;;;8.26;75.27;101746.59;5081480;27;45432;-65
2022/11/27 01:09:41;;;;;;;;;17.00;13.50;;;;;8.39;76.03;101757.75;5078855;27;45483;-67
2022/11/27 01:12:07;;;;;;;;;22.75;12.25;;;;;8.34;74.49;101741.09;5077080;27;53413;-63
2022/11/27 01:14:32;;;;;;;;;15.00;15.00;;;;;8.41;74.91;101753.25;5078657;28;45450;-58
2022/11/27 01:16:58;;;;;;;;;12.50;9.75;;;;;8.35;75.11;101749.03;5080285;28;45303;-63
2022/11/27 01:19:24;;;;;;;;;10.50;8.50;;;;;8.24;76.22;101735.16;5077892;28;48086;-65
2022/11/27 01:21:49;;;;;;;;;15.00;15.00;;;;;8.27;75.23;101735.06;5059601;28;45366;-61
2022/11/27 01:24:16;;;;;;;;;17.75;14.00;;;;;8.32;75.32;101758.78;5075821;28;45237;-63
2022/11/27 01:26:42;;;;;;;;;15.25;13.50;;;;;8.28;75.50;101750.94;5067487;28;45426;-61
2022/11/27 01:29:07;;;;;;;;;11.00;11.00;;;;;8.13;75.78;101735.47;5072467;28;46170;-63
2022/11/27 01:31:33;;;;;;;;;10.75;10.75;;;;;8.31;74.96;101757.03;5078385;28;45470;-62
2022/11/27 01:34:05;;;;;;;;;14.75;14.75;;;;;8.33;75.58;101749.91;5075615;28;45535;-61
2022/11/27 01:36:32;;;;;;;;;14.00;14.00;;;;;8.28;75.06;101723.56;5063835;28;45427;-66
2022/11/27 01:39:04;;;;;;;;;18.00;13.75;;;;;8.38;75.89;101737.47;5064412;28;45645;-64
2022/11/27 01:41:35;;;;;;;;;15.75;14.00;;;;;8.36;74.89;101737.50;5078391;28;45278;-63
2022/11/27 01:44:22;;;;;;;;;14.00;11.25;;;;;8.37;75.37;101736.59;5069423;28;45442;-66
2022/11/27 01:46:51;;;;;;;;;14.25;13.00;;;;;8.29;75.18;101727.94;5061672;28;45472;-63
2022/11/27 01:49:36;;;;;;;;;13.50;13.50;;;;;8.31;75.26;101725.25;5075390;27;46207;-68
2022/11/27 01:52:24;;;;;;;;;17.00;14.25;;;;;8.29;74.97;101725.28;5074020;27;45415;-62
2022/11/27 01:54:59;;;;;;;;;20.50;17.00;;;;;8.37;75.36;101739.25;5069036;27;45398;-56
2022/11/27 01:57:34;;;;;;;;;13.00;13.00;;;;;8.39;75.49;101731.25;5059794;28;45334;-67
2022/11/27 02:00:01;;;;;;;;;14.25;10.75;;;;;8.37;75.58;101730.41;5077033;27;45734;-61
2022/11/27 02:02:27;;;;;;;;;12.50;10.75;;;;;8.33;75.12;101728.72;5077860;27;45643;-73
2022/11/27 02:04:54;;;;;;;;;13.75;12.25;;;;;8.34;74.96;101725.19;5077620;27;45480;-63
2022/11/27 02:07:19;;;;;;;;;12.50;11.25;;;;;8.35;74.80;101721.66;5077034;27;46515;-61
2022/11/27 02:09:45;;;;;;;;;18.50;11.00;;;;;8.29;74.73;101710.25;5070594;27;45560;-64
2022/11/27 02:12:26;;;;;;;;;21.00;14.50;;;;;8.34;75.00;101727.84;5071060;28;45290;-69
2022/11/27 02:15:15;;;;;;;;;13.25;6.75;;;;;8.30;74.97;101724.38;5073369;28;45452;-71
2022/11/27 02:17:56;;;;;;;;;10.00;10.00;;;;;8.32;75.09;101730.50;5073984;27;45372;-64
2022/11/27 02:20:24;;;;;;;;;9.00;9.00;;;;;8.33;75.26;101729.59;5074822;27;46662;-62
2022/11/27 02:23:20;;;;;;;;;14.75;9.25;;;;;8.34;75.52;101719.88;5075819;28;45243;-66
2022/11/27 02:26:10;;;;;;;;;14.50;11.25;;;;;8.33;75.54;101715.47;5059004;28;45284;-69
2022/11/27 02:29:03;;;;;;;;;11.75;9.00;;;;;8.35;75.80;101709.25;5078180;27;45421;-60
2022/11/27 02:31:55;;;;;;;;;11.25;10.00;;;;;8.37;74.88;101712.72;5076892;28;46338;-62
2022/11/27 02:34:31;;;;;;;;;13.75;12.00;;;;;8.37;74.70;101711.88;5064057;28;45387;-67
2022/11/27 02:37:08;;;;;;;;;10.00;10.00;;;;;8.34;74.99;101714.56;5079768;28;45409;-65
2022/11/27 02:39:44;;;;;;;;;10.75;7.50;;;;;8.32;75.66;101705.78;5074936;28;45397;-61
2022/11/27 02:42:17;;;;;;;;;14.00;10.00;;;;;8.36;75.01;101703.03;5057712;28;45871;-56
2022/11/27 02:44:49;;;;;;;;;11.00;11.00;;;;;8.34;74.55;101703.97;5066881;27;46056;-57
2022/11/27 02:47:15;;;;;;;;;12.00;10.75;;;;;8.29;75.94;101704.97;5076693;28;45475;-61
2022/11/27 02:49:43;;;;;;;;;10.00;8.75;;;;;8.37;75.33;101701.25;5077678;27;45249;-64
2022/11/27 02:52:13;;;;;;;;;9.75;6.00;;;;;8.37;74.98;101688.00;5057907;27;46241;-62
2022/11/27 02:54:41;;;;;;;;;10.75;9.25;;;;;8.37;75.33;101680.94;5041363;28;45454;-66
2022/11/27 02:57:09;;;;;;;;;10.25;9.00;;;;;8.34;74.88;101669.53;5061197;28;45287;-66
2022/11/27 02:59:36;;;;;;;;;11.75;10.25;;;;;8.33;74.78;101673.06;5057925;28;45662;-64
2022/11/27 03:02:08;;;;;;;;;12.00;9.00;;;;;8.33;74.66;101665.97;5077500;28;46086;-65
2022/11/27 03:04:39;;;;;;;;;11.75;9.50;;;;;8.33;74.69;101660.66;5076849;28;48054;-64
2022/11/27 03:07:11;;;;;;;;;9.25;9.00;;;;;8.37;74.73;101661.50;5052765;28;45261;-66
2022/11/27 03:09:47;;;;;;;;;9.00;7.00;;;;;8.33;75.02;101659.81;5063767;28;45328;-66
2022/11/27 03:12:16;;;;;;;;;10.25;6.75;;;;;8.30;75.56;101660.75;5076898;27;46395;-65
2022/11/27 03:14:42;;;;;;;;;12.00;6.50;;;;;8.27;75.44;101656.44;5076909;28;45266;-66
2022/11/27 03:17:22;;;;;;;;;10.00;8.50;;;;;8.31;75.60;101658.97;5077270;28;45495;-66
2022/11/27 03:19:57;;;;;;;;;13.25;8.75;;;;;8.32;75.18;101655.41;5059167;28;45487;-67
2022/11/27 03:22:22;;;;;;;;;12.25;9.00;;;;;8.26;75.46;101659.13;5056443;28;46308;-64
2022/11/27 03:24:48;;;;;;;;;18.00;10.00;;;;;8.27;75.76;101635.22;5049079;28;45349;-67
2022/11/27 03:27:20;;;;;;;;;12.25;11.00;;;;;8.16;74.96;101610.81;5077025;28;45284;-66
2022/11/27 03:29:56;;;;;;;;;17.00;9.00;;;;;8.33;74.99;101634.16;5058300;28;45473;-64
2022/11/27 03:32:24;;;;;;;;;11.25;7.75;;;;;8.31;74.50;101641.28;5075085;27;45394;-64
2022/11/27 03:34:50;;;;;;;;;8.00;8.00;;;;;8.28;75.18;101626.38;5058503;28;45217;-67
2022/11/27 03:37:15;;;;;;;;;9.25;9.00;;;;;8.22;75.61;101609.78;5057360;28;45553;-64
2022/11/27 03:39:42;;;;;;;;;9.75;7.00;;;;;8.28;75.76;101614.91;5076519;27;45468;-67
2022/11/27 03:42:16;;;;;;;;;9.00;9.00;;;;;8.29;75.01;101609.53;5062014;28;46297;-64
2022/11/27 03:44:48;;;;;;;;;8.00;8.00;;;;;8.19;74.71;101589.53;5056508;28;45469;-66
2022/11/27 03:47:41;;;;;;;;;13.00;9.00;;;;;8.33;75.08;101606.78;5039241;28;45375;-67
2022/11/27 03:50:30;;;;;;;;;9.25;9.25;;;;;8.35;75.43;101597.06;5059103;28;45489;-67
2022/11/27 03:53:24;;;;;;;;;11.25;9.00;;;;;8.37;75.84;101597.88;5058501;28;46855;-67
2022/11/27 03:55:58;;;;;;;;;4.50;4.50;;;;;8.37;75.26;101595.25;5059455;28;45477;-65
2022/11/27 03:58:39;;;;;;;;;12.25;10.00;;;;;8.29;75.73;101591.00;5052417;28;45326;-66
2022/11/27 04:01:09;;;;;;;;;10.50;9.25;;;;;8.22;75.99;101583.28;5058943;28;45363;-67
2022/11/27 04:03:35;;;;;;;;;9.50;8.75;;;;;8.27;76.17;101586.66;5049964;28;47115;-65
2022/11/27 04:06:01;;;;;;;;;12.00;9.00;;;;;8.24;75.51;101581.47;5056382;28;45290;-64
2022/11/27 04:08:26;;;;;;;;;11.25;11.25;;;;;8.30;75.67;101597.16;5056237;28;45378;-66
2022/11/27 04:10:52;;;;;;;;;8.50;7.50;;;;;8.19;75.58;101581.56;5056069;27;45358;-67
2022/11/27 04:13:17;;;;;;;;;10.00;8.50;;;;;8.25;75.89;101599.09;5079336;27;45239;-66
2022/11/27 04:15:43;;;;;;;;;6.50;5.25;;;;;8.31;75.91;101600.69;5067855;27;45452;-67
2022/11/27 04:18:08;;;;;;;;;9.25;7.50;;;;;8.24;74.88;101598.22;5076833;27;45472;-66
2022/11/27 04:20:34;;;;;;;;;9.75;7.00;;;;;8.25;75.39;101599.97;5075877;27;45560;-66
2022/11/27 04:22:59;;;;;;;;;10.00;6.25;;;;;8.31;75.59;101604.19;5076277;28;47089;-64
2022/11/27 04:25:24;;;;;;;;;6.00;6.00;;;;;8.31;75.82;101593.59;5076756;28;45452;-68
2022/11/27 04:27:50;;;;;;;;;9.50;6.75;;;;;8.31;75.96;101598.03;5076365;28;45399;-65
2022/11/27 04:30:16;;;;;;;;;13.00;5.50;;;;;8.31;75.97;101592.72;5074873;28;45448;-67
2022/11/27 04:32:42;;;;;;;;;7.50;5.25;;;;;8.29;76.56;101583.03;5068074;28;46074;-66
2022/11/27 04:35:08;;;;;;;;;10.75;9.75;;;;;8.28;76.05;101576.00;5064928;28;45361;-65
2022/11/27 04:37:34;;;;;;;;;10.00;6.00;;;;;8.29;77.04;101577.75;5078128;27;45374;-66
2022/11/27 04:39:59;;;;;;;;;0.00;0.00;;;;;8.33;76.37;101577.63;5075019;28;45627;-66
2022/11/27 04:42:25;;;;;;;;;8.50;7.00;;;;;8.28;76.78;101565.41;5076008;28;45690;-65
2022/11/27 04:44:50;;;;;;;;;10.25;8.50;;;;;8.37;76.32;101581.97;5074626;27;45267;-67
2022/11/27 04:47:16;;;;;;;;;9.25;9.25;;;;;8.36;77.37;101569.66;5076257;27;45354;-65
2022/11/27 04:49:41;;;;;;;;;10.25;6.25;;;;;8.34;76.48;101561.75;5077537;27;45560;-66
2022/11/27 04:52:07;;;;;;;;;9.25;9.25;;;;;8.31;76.17;101545.88;5077259;27;45328;-66
2022/11/27 04:54:32;;;;;;;;;14.00;11.00;;;;;8.28;75.99;101536.25;5079322;27;45452;-64
2022/11/27 04:56:58;;;;;;;;;7.25;7.25;;;;;8.32;76.63;101530.84;5082287;27;45367;-65
2022/11/27 04:59:23;;;;;;;;;6.00;6.00;;;;;8.38;76.24;101541.31;5078636;27;45417;-67
2022/11/27 05:01:49;;;;;;;;;10.75;9.00;;;;;8.37;76.10;101535.13;5079147;28;45948;-65
2022/11/27 05:04:14;;;;;;;;;9.75;9.00;;;;;8.39;76.91;101532.44;5079815;28;45311;-66
2022/11/27 05:06:39;;;;;;;;;10.50;10.00;;;;;8.25;76.63;101509.84;5065447;28;45525;-66
2022/11/27 05:09:05;;;;;;;;;3.50;2.75;;;;;8.42;75.60;101534.97;5087068;27;45671;-66
2022/11/27 05:11:31;;;;;;;;;9.25;9.00;;;;;8.34;76.01;101534.34;5078099;27;45417;-63
2022/11/27 05:14:15;;;;;;;;;7.00;7.00;;;;;8.29;75.83;101531.81;5078396;27;45280;-65
2022/11/27 05:16:59;;;;;;;;;9.00;9.00;;;;;8.31;77.37;101523.81;5059204;27;45336;-66
2022/11/27 05:19:28;;;;;;;;;11.50;8.00;;;;;8.31;76.66;101503.47;5066930;27;45385;-66
2022/11/27 05:21:54;;;;;;;;;7.00;7.00;;;;;8.25;76.41;101504.56;5069017;27;46496;-67
2022/11/27 05:24:22;;;;;;;;;8.50;6.50;;;;;8.32;76.37;101517.59;5034361;28;45401;-67
2022/11/27 05:26:48;;;;;;;;;7.50;7.00;;;;;8.33;76.17;101516.69;5065835;27;45282;-65
2022/11/27 05:29:14;;;;;;;;;8.00;8.00;;;;;8.34;76.33;101519.34;5081492;27;45631;-64
2022/11/27 05:31:40;;;;;;;;;9.25;9.00;;;;;8.30;77.03;101517.66;5078088;27;45348;-65
2022/11/27 05:34:06;;;;;;;;;7.00;7.00;;;;;8.35;76.40;101523.72;5071273;27;45437;-67
2022/11/27 05:36:32;;;;;;;;;14.50;9.25;;;;;8.35;75.92;101522.84;5071127;27;45540;-65
2022/11/27 05:38:59;;;;;;;;;11.50;8.00;;;;;8.34;76.38;101524.66;5082922;27;44859;-66
2022/11/27 05:41:24;;;;;;;;;9.50;9.00;;;;;8.28;76.34;101528.31;5082242;27;45392;-65
2022/11/27 05:43:50;;;;;;;;;9.00;9.00;;;;;8.32;75.98;101520.25;5060715;27;45395;-66
2022/11/27 05:46:18;;;;;;;;;9.00;9.00;;;;;8.32;76.86;101513.16;5056256;28;45439;-66
2022/11/27 05:48:44;;;;;;;;;10.00;6.50;;;;;8.33;76.79;101506.06;5052132;27;45380;-66
2022/11/27 05:51:10;;;;;;;;;6.00;5.00;;;;;8.35;76.26;101496.34;5072031;27;45781;-68
2022/11/27 05:53:35;;;;;;;;;7.00;6.25;;;;;8.39;76.61;101496.19;5076743;27;45422;-65
2022/11/27 05:56:16;;;;;;;;;10.25;9.50;;;;;8.39;75.95;101495.31;5065995;28;45399;-66
2022/11/27 05:58:43;;;;;;;;;6.25;6.25;;;;;8.37;76.65;101505.13;5076159;27;45239;-66
2022/11/27 06:01:11;;;;;;;;;8.00;7.00;;;;;8.36;77.21;101506.03;5070916;27;45464;-66
2022/11/27 06:03:39;;;;;;;;;9.25;9.25;;;;;8.39;76.91;101508.59;5046385;28;45397;-68
2022/11/27 06:06:07;;;;;;;;;8.00;8.00;;;;;8.36;76.89;101511.34;5064699;27;45681;-67
2022/11/27 06:08:32;;;;;;;;;9.75;8.50;;;;;8.32;76.37;101509.66;5041332;28;45197;-66
2022/11/27 06:10:57;;;;;;;;;6.00;6.00;;;;;8.24;76.16;101492.22;5076099;28;45639;-67
2022/11/27 06:13:23;;;;;;;;;8.75;6.50;;;;;8.26;77.83;101490.38;5073768;27;45642;-66
2022/11/27 06:15:48;;;;;;;;;7.00;6.25;;;;;8.35;76.89;101504.31;5088865;27;45455;-65
2022/11/27 06:18:13;;;;;;;;;9.50;8.50;;;;;8.34;77.80;101499.91;5078981;28;45539;-66
2022/11/27 06:20:39;;;;;;;;;11.25;7.50;;;;;8.34;76.99;101491.94;5074416;28;45404;-64
2022/11/27 06:23:04;;;;;;;;;7.50;7.50;;;;;8.36;77.06;101495.44;5078437;27;45354;-64
2022/11/27 06:25:30;;;;;;;;;8.00;8.00;;;;;8.33;76.93;101490.19;5075469;28;45462;-65
2022/11/27 06:27:56;;;;;;;;;6.50;6.00;;;;;8.33;77.61;101492.81;5078178;28;45522;-65
2022/11/27 06:30:21;;;;;;;;;9.75;9.75;;;;;8.39;77.03;101490.91;5054247;28;46090;-67
2022/11/27 06:32:47;;;;;;;;;7.25;6.00;;;;;8.43;77.04;101503.13;5069006;28;45382;-65
2022/11/27 06:35:12;;;;;;;;;10.25;8.75;;;;;8.41;76.56;101488.19;5059654;28;45449;-65
2022/11/27 06:37:38;;;;;;;;;8.00;8.00;;;;;8.34;76.36;101457.47;5077918;27;45291;-66
2022/11/27 06:40:04;;;;;;;;;10.25;7.50;;;;;8.33;77.07;101463.69;5077611;27;46165;-66
2022/11/27 06:42:30;;;;;;;;;14.25;10.00;;;;;8.37;76.56;101455.63;5077809;28;45262;-66
2022/11/27 06:44:56;;;;;;;;;12.00;10.50;;;;;8.42;76.74;101452.81;5084807;27;45480;-66
2022/11/27 06:47:22;;;;;;;;;13.00;9.00;;;;;8.41;76.48;101444.00;5064687;27;45163;-67
2022/11/27 06:49:47;;;;;;;;;9.00;9.00;;;;;8.43;77.12;101451.88;5080094;27;45582;-66
2022/11/27 06:52:12;;;;;;;;;10.50;6.00;;;;;8.40;76.51;101454.66;5077941;27;45204;-65
2022/11/27 06:54:38;;;;;;;;;12.75;9.75;;;;;8.40;77.56;101449.34;5074512;27;45399;-68
2022/11/27 06:57:03;;;;;;;;;14.00;11.50;;;;;8.48;76.82;101452.63;5063046;28;45588;-65
2022/11/27 06:59:29;;;;;;;;;9.50;9.50;;;;;8.46;76.63;101449.13;5077734;27;45404;-69
2022/11/27 07:01:54;;;;;;;;;9.50;9.50;;;;;8.42;76.52;101447.50;5077440;27;45390;-67
2022/11/27 07:04:20;;;;;;;;;8.00;8.00;;;;;8.48;77.25;101457.94;5074777;27;45818;-66
2022/11/27 07:06:45;;;;;;;;;11.50;9.50;;;;;8.45;76.98;101444.75;5067194;27;45641;-67
2022/11/27 07:09:11;;;;;;;;;7.00;7.00;;;;;8.40;77.19;101433.44;5063920;27;46392;-67
2022/11/27 07:11:37;;;;;;;;;10.50;9.75;;;;;8.45;77.61;101447.41;5076382;27;45311;-67
2022/11/27 07:14:04;;;;;;;;;12.75;9.75;;;;;8.43;77.63;101446.59;5074690;27;45437;-66
2022/11/27 07:16:32;;;;;;;;;16.00;8.00;;;;;8.42;77.82;101443.06;5067912;27;45287;-66
2022/11/27 07:19:00;;;;;;;;;13.25;9.00;;;;;8.43;78.12;101436.84;5046110;28;45338;-64
2022/11/27 07:21:26;;;;;;;;;8.50;6.00;;;;;8.44;77.89;101438.56;5079087;27;45515;-66
2022/11/27 07:23:51;;;;;;;;;10.50;10.50;;;;;8.45;77.47;101436.78;5060241;27;45523;-66
2022/11/27 07:26:21;;;;;;;;;8.50;6.25;;;;;8.43;78.18;101446.59;5069988;27;45657;-66
2022/11/27 07:28:47;;;;;;;;;11.50;10.00;;;;;8.42;77.96;101447.50;5058132;28;45661;-66
2022/11/27 07:31:15;;;;;;;;;15.00;13.75;;;;;8.42;78.13;101453.69;5083955;27;45389;-65
2022/11/27 07:33:41;;;;;;;;;10.00;7.50;;;;;8.40;78.12;101446.69;5070444;28;45521;-67
2022/11/27 07:36:14;;;;;;;;;10.75;10.75;;;;;8.44;77.93;101456.28;5071586;27;45448;-67
2022/11/27 07:38:40;;;;;;;;;14.50;9.75;;;;;8.45;78.61;101458.00;5078237;27;45508;-67
2022/11/27 07:41:06;;;;;;;;;13.50;9.50;;;;;8.47;78.88;101456.19;5082670;27;45401;-67
2022/11/27 07:43:33;;;;;;;;;10.00;9.75;;;;;8.53;79.14;101454.19;5074774;28;45327;-68
2022/11/27 07:46:01;;;;;;;;;12.50;10.00;;;;;8.51;78.64;101449.84;5064117;27;45387;-67
2022/11/27 07:48:27;;;;;;;;;7.00;7.00;;;;;8.53;79.38;101450.66;5080450;27;46121;-65
2022/11/27 07:50:52;;;;;;;;;5.00;5.00;;;;;8.49;80.54;101446.41;5076069;27;45534;-67
2022/11/27 07:53:17;;;;;;;;;13.50;9.00;;;;;8.44;79.76;101448.31;5060630;28;45397;-66
2022/11/27 07:55:43;;;;;;;;;12.75;10.75;;;;;8.38;80.49;101438.81;5075786;27;45623;-66
2022/11/27 07:58:08;;;;;;;;;9.50;9.50;;;;;8.37;80.49;101433.56;5073522;28;46122;-65
2022/11/27 08:00:34;;;;;;;;;9.50;9.25;;;;;8.43;82.05;101452.75;5075294;27;45497;-65
2022/11/27 08:03:00;;;;;;;;;10.00;10.00;;;;;8.42;80.25;101455.47;5063708;28;45371;-65
2022/11/27 08:05:26;;;;;;;;;9.00;9.00;;;;;8.37;80.18;101455.63;5062411;27;45566;-65
2022/11/27 08:07:52;;;;;;;;;9.50;9.50;;;;;8.40;81.02;101452.00;5075000;28;45505;-64
2022/11/27 08:10:17;;;;;;;;;11.25;8.50;;;;;8.34;80.49;101444.22;5074288;27;45457;-65
2022/11/27 08:12:43;;;;;;;;;12.75;7.50;;;;;8.27;80.21;101439.13;5074092;27;45405;-64
2022/11/27 08:15:09;;;;;;;;;15.75;11.00;;;;;8.36;81.04;101458.31;5081265;27;46762;-65
2022/11/27 08:17:34;;;;;;;;;13.00;11.00;;;;;8.29;80.51;101426.69;5074854;27;46443;-64
2022/11/27 08:19:59;;;;;;;;;9.50;9.00;;;;;8.39;80.28;101434.38;5057896;28;45211;-65
2022/11/27 08:22:25;;;;;;;;;16.00;9.75;;;;;8.36;80.19;101437.13;5072204;27;45245;-64
2022/11/27 08:24:50;;;;;;;;;14.00;9.00;;;;;8.27;80.43;101412.63;5058077;28;45534;-64
2022/11/27 08:27:16;;;;;;;;;10.25;10.25;;;;;8.40;81.51;101428.16;5078232;28;45386;-63
2022/11/27 08:29:42;;;;;;;;;13.75;11.25;;;;;8.31;80.95;101423.97;5077795;28;45388;-62
2022/11/27 08:32:07;;;;;;;;;10.75;10.50;;;;;8.33;80.88;101423.91;5059364;28;45491;-60
2022/11/27 08:34:32;;;;;;;;;14.25;14.25;;;;;8.31;80.39;101412.50;5074606;27;45475;-64
2022/11/27 08:36:58;;;;;;;;;10.75;10.75;;;;;8.32;81.02;101420.41;5063181;28;46107;-63
2022/11/27 08:39:25;;;;;;;;;11.00;10.00;;;;;8.31;81.28;101407.22;5074600;27;45245;-60
2022/11/27 08:41:51;;;;;;;;;9.00;9.00;;;;;8.35;81.21;101404.47;5080164;28;45452;-59
2022/11/27 08:44:16;;;;;;;;;13.25;11.00;;;;;8.38;81.22;101404.34;5078645;27;45505;-63
2022/11/27 08:46:42;;;;;;;;;13.25;10.00;;;;;8.38;81.62;101400.81;5080154;27;46690;-62
2022/11/27 08:49:07;;;;;;;;;10.25;8.50;;;;;8.39;80.75;101394.59;5075723;27;45258;-60
2022/11/27 08:51:33;;;;;;;;;11.00;10.25;;;;;8.29;80.85;101388.72;5074084;27;45438;-59
2022/11/27 08:53:58;;;;;;;;;15.75;10.00;;;;;8.38;81.31;101395.53;5078022;28;45498;-60
2022/11/27 08:56:25;;;;;;;;;10.50;10.50;;;;;8.38;81.86;101388.44;5069617;28;45312;-59
2022/11/27 08:58:50;;;;;;;;;8.00;8.00;;;;;8.37;81.19;101376.09;5064730;28;45181;-62
2022/11/27 09:01:20;;;;;;;;;9.25;9.00;;;;;8.45;81.44;101378.47;5061997;28;45272;-61
2022/11/27 09:03:46;;;;;;;;;12.75;10.50;;;;;8.46;81.03;101366.94;5079534;28;45426;-61
2022/11/27 09:06:15;;;;;;;;;14.25;11.50;;;;;8.45;80.97;101367.88;5075702;27;46233;-61
2022/11/27 09:08:42;;;;;;;;;16.50;11.00;;;;;8.43;81.08;101362.63;5063177;27;45438;-60
2022/11/27 09:11:09;;;;;;;;;16.75;12.00;;;;;8.46;80.90;101356.34;5074701;27;45364;-62
2022/11/27 09:13:39;;;;;;;;;14.00;12.25;;;;;8.47;81.08;101350.16;5069564;27;45549;-61
2022/11/27 09:16:06;;;;;;;;;22.75;9.50;;;;;8.55;80.52;101356.03;5057832;27;47066;-60
2022/11/27 09:18:32;;;;;;;;;19.50;11.00;;;;;8.47;80.96;101328.94;5059709;28;46572;-58
2022/11/27 09:21:00;;;;;;;;;12.25;10.50;;;;;8.60;81.08;101351.44;5077759;28;45257;-64
2022/11/27 09:23:26;;;;;;;;;10.75;8.50;;;;;8.61;79.73;101360.28;5073493;28;45949;-61
2022/11/27 09:25:52;;;;;;;;;9.50;9.25;;;;;8.64;81.13;101358.38;5060282;28;46693;-60
2022/11/27 09:28:18;;;;;;;;;15.50;13.00;;;;;8.66;80.90;101345.06;5070773;28;45827;-61
2022/11/27 09:30:43;;;;;;;;;18.75;13.75;;;;;8.70;79.73;101347.53;5057844;28;45453;-63
2022/11/27 09:33:08;;;;;;;;;15.50;13.75;;;;;8.71;80.21;101336.00;5067501;28;45551;-63
2022/11/27 09:35:36;;;;;;;;;15.75;12.25;;;;;8.77;79.58;101325.19;5072073;27;46269;-61
2022/11/27 09:38:02;;;;;;;;;14.00;13.25;;;;;8.74;79.05;101314.69;5076951;28;45226;-64
2022/11/27 09:40:27;;;;;;;;;14.25;14.25;;;;;8.73;79.02;101299.69;5076765;28;45423;-61
2022/11/27 09:43:08;;;;;;;;;10.00;10.00;;;;;8.86;79.54;101316.88;5059347;28;45596;-61
2022/11/27 09:45:38;;;;;;;;;20.00;12.50;;;;;8.80;79.40;101306.50;5070894;28;47314;-60
2022/11/27 09:48:10;;;;;;;;;13.50;11.75;;;;;8.83;79.08;101287.81;5077122;28;45421;-60
2022/11/27 09:50:48;;;;;;;;;12.25;12.25;;;;;8.94;79.14;101292.72;5074821;28;45322;-60
2022/11/27 09:53:22;;;;;;;;;13.00;11.00;;;;;8.99;78.67;101295.22;5057914;28;45500;-60
2022/11/27 09:55:50;;;;;;;;;19.50;12.25;;;;;8.99;77.35;101281.94;5064595;27;47342;-60
2022/11/27 09:58:22;;;;;;;;;20.00;12.50;;;;;9.05;77.68;101289.66;5060284;28;47413;-61
2022/11/27 10:00:48;;;;;;;;;9.75;9.50;;;;;9.05;77.63;101273.72;5063770;28;45385;-61
2022/11/27 10:03:19;;;;;;;;;11.25;10.75;;;;;9.09;77.42;101291.25;5071717;27;45306;-60
2022/11/27 10:06:04;;;;;;;;;16.00;14.75;;;;;9.11;77.47;101284.09;5060361;28;45296;-61
2022/11/27 10:08:51;;;;;;;;;11.50;10.00;;;;;9.19;77.21;101287.31;5060331;27;45255;-61
2022/11/27 10:11:28;;;;;;;;;12.75;12.75;;;;;9.22;77.43;101303.13;5069045;27;45504;-64
2022/11/27 10:14:01;;;;;;;;;16.00;11.75;;;;;9.18;76.44;101298.88;5079741;27;45703;-64
2022/11/27 10:16:46;;;;;;;;;19.50;12.25;;;;;9.23;76.70;101310.16;5067862;28;46326;-62
2022/11/27 10:19:36;;;;;;;;;12.75;7.25;;;;;9.24;76.20;101295.94;5070896;28;45410;-74
2022/11/27 10:22:14;;;;;;;;;12.25;11.00;;;;;9.22;76.72;101286.31;5084339;27;45306;-68
2022/11/27 10:24:55;;;;;;;;;12.75;10.75;;;;;9.30;76.05;101301.03;5076174;27;45439;-66
2022/11/27 10:27:51;;;;;;;;;10.75;8.75;;;;;9.28;76.13;101280.78;5040254;28;47367;-61
2022/11/27 10:30:19;;;;;;;;;14.00;12.00;;;;;9.31;75.77;101285.97;5057890;28;45471;-62
2022/11/27 10:32:53;;;;;;;;;7.50;6.25;;;;;9.26;75.84;101267.59;5057860;28;45462;-65
2022/11/27 10:35:23;;;;;;;;;10.00;10.00;;;;;9.28;76.96;101267.53;5050651;28;45650;-71
2022/11/27 10:37:53;;;;;;;;;15.50;14.00;;;;;9.35;77.60;101280.47;5076299;28;45423;-63
2022/11/27 10:40:44;;;;;;;;;14.25;12.25;;;;;9.25;77.17;101265.88;5076654;28;45405;-68
2022/11/27 10:43:16;;;;;;;;;13.00;12.00;;;;;9.26;75.98;101251.66;5049729;28;45510;-68
2022/11/27 10:46:03;;;;;;;;;14.75;12.75;;;;;9.31;77.54;101255.00;5063042;28;45566;-68
2022/11/27 10:48:28;;;;;;;;;11.00;11.00;;;;;9.19;77.24;101251.97;5057104;28;45288;-67
2022/11/27 10:50:54;;;;;;;;;14.50;10.25;;;;;9.13;77.34;101237.16;5061444;28;45407;-68
2022/11/27 10:53:26;;;;;;;;;14.25;11.00;;;;;9.33;76.35;101279.66;5082077;27;45456;-70
2022/11/27 10:55:57;;;;;;;;;7.75;7.75;;;;;9.35;76.38;101258.38;5056795;28;45389;-65
2022/11/27 10:58:56;;;;;;;;;9.50;8.25;;;;;9.35;75.42;101255.72;5059573;28;45499;-63
2022/11/27 11:01:25;;;;;;;;;17.00;11.50;;;;;9.25;75.96;101236.66;5077521;28;45231;-68
2022/11/27 11:04:07;;;;;;;;;13.00;11.00;;;;;9.39;76.79;101244.06;5079822;28;45458;-65
2022/11/27 11:06:40;;;;;;;;;18.25;13.75;;;;;9.40;76.62;101244.00;5078774;28;45239;-69
2022/11/27 11:09:14;;;;;;;;;15.50;13.25;;;;;9.45;76.01;101231.41;5066897;27;45510;-65
2022/11/27 11:11:40;;;;;;;;;15.25;15.00;;;;;9.34;75.43;101227.44;5079306;27;45965;-65
2022/11/27 11:14:25;;;;;;;;;11.25;11.25;;;;;9.42;76.49;101244.81;5076395;27;45234;-69
2022/11/27 11:16:52;;;;;;;;;22.75;15.25;;;;;9.41;78.32;101243.06;5058373;27;45434;-67
2022/11/27 11:19:36;;;;;;;;;10.50;7.75;;;;;9.39;77.39;101226.34;5077171;27;46144;-67
2022/11/27 11:22:20;;;;;;;;;12.00;12.00;;;;;9.31;77.94;101204.56;5057521;28;45370;-70
2022/11/27 11:24:48;;;;;;;;;21.00;15.75;;;;;9.31;79.18;101190.41;5061660;27;45436;-69
2022/11/27 11:27:20;;;;;;;;;16.00;14.25;;;;;9.39;78.18;101197.16;5079448;27;45538;-69
2022/11/27 11:29:48;;;;;;;;;19.25;15.00;;;;;9.55;79.21;101200.03;5070287;28;46101;-70
2022/11/27 11:32:18;;;;;;;;;15.25;14.75;;;;;9.57;77.90;101194.66;5057478;28;45509;-68
2022/11/27 11:35:07;;;;;;;;;19.00;15.00;;;;;9.57;77.63;101181.38;5074294;27;45410;-67